Time;durP1;ratioP1;P1;durP2;ratioP2;P2;SDS_P1;SDS_P2;PMS_P1;PMS_P2;Temp;Humidity;BMP_temperature;BMP_pressure;BME280_temperature;BME280_humidity;BME280_pressure;Samples;Min_cycle;Max_cycle;Signal;HPM_P1;HPM_P2
2021/05/16 00:00:01;;;;;;;4.93;1.67;;;10.50;99.90;;;;;;6275453;28;20055;-77
2021/05/16 00:03:04;;;;;;;1.92;1.55;;;10.50;99.90;;;;;;6275888;28;20487;-77
2021/05/16 00:06:06;;;;;;;2.53;1.50;;;10.50;99.90;;;;;;6275685;28;20053;-76
2021/05/16 00:09:08;;;;;;;1.77;1.60;;;10.50;99.90;;;;;;6275352;28;20049;-76
2021/05/16 00:12:11;;;;;;;1.38;1.25;;;10.50;99.90;;;;;;6275641;28;20084;-76
2021/05/16 00:15:15;;;;;;;3.35;1.77;;;10.40;99.90;;;;;;6273253;28;20135;-76
2021/05/16 00:18:16;;;;;;;4.35;1.75;;;10.40;99.90;;;;;;6275219;28;20518;-76
2021/05/16 00:21:18;;;;;;;3.83;2.17;;;10.30;99.90;;;;;;6274796;28;20068;-76
2021/05/16 00:24:20;;;;;;;4.68;1.50;;;10.30;99.90;;;;;;6275226;28;20128;-76
2021/05/16 00:27:21;;;;;;;4.05;2.67;;;10.30;99.90;;;;;;6275256;28;20524;-76
2021/05/16 00:30:25;;;;;;;4.13;3.35;;;10.20;99.90;;;;;;6274808;28;20108;-76
2021/05/16 00:33:27;;;;;;;6.80;1.70;;;10.20;99.90;;;;;;6274811;28;20048;-76
2021/05/16 00:36:28;;;;;;;6.07;1.65;;;10.20;99.90;;;;;;6274665;28;20147;-76
2021/05/16 00:39:30;;;;;;;4.72;2.13;;;10.20;99.90;;;;;;6275225;28;20080;-76
2021/05/16 00:42:31;;;;;;;3.60;1.77;;;10.10;99.90;;;;;;6274273;28;20067;-77
2021/05/16 00:45:34;;;;;;;2.53;1.52;;;10.20;99.90;;;;;;6274062;28;20072;-76
2021/05/16 00:48:35;;;;;;;1.85;1.15;;;10.20;99.90;;;;;;6274575;28;20418;-76
2021/05/16 00:51:37;;;;;;;4.90;2.40;;;10.20;99.90;;;;;;6274673;28;20133;-76
2021/05/16 00:54:39;;;;;;;3.83;1.50;;;10.20;99.90;;;;;;6274227;28;20045;-76
2021/05/16 00:57:41;;;;;;;3.60;0.98;;;10.20;99.90;;;;;;6273982;28;20570;-76
2021/05/16 01:00:43;;;;;;;5.32;2.53;;;10.20;99.90;;;;;;6273858;28;20051;-76
2021/05/16 01:03:45;;;;;;;2.88;2.63;;;10.20;99.90;;;;;;6274840;28;20144;-76
2021/05/16 01:06:46;;;;;;;6.82;2.22;;;10.20;99.90;;;;;;6274253;28;20456;-76
2021/05/16 01:09:48;;;;;;;2.20;1.35;;;10.20;99.90;;;;;;6273532;28;20045;-77
2021/05/16 01:12:54;;;;;;;3.00;1.30;;;10.30;99.90;;;;;;6273833;28;20080;-77
2021/05/16 01:15:55;;;;;;;1.65;1.30;;;10.20;99.90;;;;;;6273750;28;20048;-76
2021/05/16 01:18:57;;;;;;;13.25;2.33;;;10.20;99.90;;;;;;6274071;28;20083;-77
2021/05/16 01:21:59;;;;;;;3.15;1.48;;;10.20;99.90;;;;;;6273760;28;20060;-77
2021/05/16 01:25:02;;;;;;;4.70;1.60;;;10.10;99.90;;;;;;6273882;28;20124;-76
2021/05/16 01:28:04;;;;;;;5.75;2.67;;;10.10;99.90;;;;;;6273368;28;20168;-77
2021/05/16 01:31:06;;;;;;;2.95;1.63;;;10.10;99.90;;;;;;6273813;28;20136;-76
2021/05/16 01:34:07;;;;;;;8.45;2.65;;;10.10;99.90;;;;;;6273582;28;20132;-77
2021/05/16 01:37:11;;;;;;;5.43;1.77;;;10.20;99.90;;;;;;6273473;28;20459;-77
2021/05/16 01:40:13;;;;;;;2.47;1.40;;;10.20;99.90;;;;;;6273158;28;20469;-77
2021/05/16 01:43:15;;;;;;;6.72;2.30;;;10.20;99.90;;;;;;6274219;28;20133;-77
2021/05/16 01:46:16;;;;;;;5.15;1.73;;;10.30;99.90;;;;;;6273008;28;20052;-77
2021/05/16 01:49:18;;;;;;;3.33;1.65;;;10.30;99.90;;;;;;6273244;28;20102;-77
2021/05/16 01:52:31;;;;;;;4.18;1.90;;;10.30;99.90;;;;;;6273217;28;20041;-77
2021/05/16 01:55:33;;;;;;;4.07;2.30;;;10.30;99.90;;;;;;6273022;28;20572;-77
2021/05/16 01:58:36;;;;;;;5.57;1.77;;;10.20;99.90;;;;;;6272753;28;20400;-76
2021/05/16 02:01:37;;;;;;;6.95;1.73;;;10.20;99.90;;;;;;6273479;28;20045;-77
2021/05/16 02:04:39;;;;;;;4.78;1.90;;;10.20;99.90;;;;;;6273356;28;20076;-77
2021/05/16 02:07:41;;;;;;;6.68;2.20;;;10.20;99.90;;;;;;6273535;28;20576;-76
2021/05/16 02:10:43;;;;;;;3.08;1.48;;;10.10;99.90;;;;;;6272901;28;20056;-76
2021/05/16 02:13:44;;;;;;;5.80;1.52;;;10.10;99.90;;;;;;6273266;28;20091;-77
2021/05/16 02:16:46;;;;;;;3.17;1.60;;;10.10;99.90;;;;;;6273978;28;20423;-77
2021/05/16 02:19:47;;;;;;;3.85;1.95;;;10.10;99.90;;;;;;6274589;28;20049;-77
2021/05/16 02:22:49;;;;;;;3.90;2.00;;;10.10;99.90;;;;;;6273938;28;20120;-76
2021/05/16 02:25:51;;;;;;;3.47;1.55;;;10.10;99.90;;;;;;6303209;28;20060;-75
2021/05/16 02:28:52;;;;;;;4.93;2.05;;;10.10;99.90;;;;;;6305126;28;20037;-76
2021/05/16 02:31:54;;;;;;;6.35;1.80;;;10.20;99.90;;;;;;6304981;28;20072;-76
2021/05/16 02:34:55;;;;;;;6.00;1.95;;;10.20;99.90;;;;;;6304801;28;20040;-76
2021/05/16 02:37:57;;;;;;;6.10;2.00;;;10.20;99.90;;;;;;6304556;28;20048;-76
2021/05/16 02:40:58;;;;;;;5.60;3.25;;;10.20;99.90;;;;;;6304092;28;20033;-76
2021/05/16 02:44:00;;;;;;;5.15;2.40;;;10.30;99.90;;;;;;6303916;28;20049;-76
2021/05/16 02:47:02;;;;;;;5.97;1.60;;;10.20;99.90;;;;;;6303586;28;20033;-76
2021/05/16 02:50:05;;;;;;;4.68;1.88;;;10.30;99.90;;;;;;6302824;28;20033;-77
2021/05/16 02:53:07;;;;;;;1.98;1.55;;;10.30;99.90;;;;;;6303147;28;20040;-75
2021/05/16 02:56:08;;;;;;;6.05;2.05;;;10.30;99.90;;;;;;6300408;28;20051;-76
2021/05/16 02:59:10;;;;;;;6.50;2.00;;;10.20;99.90;;;;;;6277294;28;20105;-76
2021/05/16 03:02:12;;;;;;;3.30;1.83;;;10.30;99.90;;;;;;6276611;28;20045;-76
2021/05/16 03:05:14;;;;;;;7.03;1.98;;;10.30;99.90;;;;;;6273739;28;20064;-76
2021/05/16 03:08:16;;;;;;;6.03;2.50;;;10.40;99.90;;;;;;6271926;28;20436;-76
2021/05/16 03:11:17;;;;;;;2.03;1.48;;;10.40;99.90;;;;;;6273180;28;20415;-76
2021/05/16 03:14:18;;;;;;;3.42;1.50;;;10.40;99.90;;;;;;6273854;28;20056;-76
2021/05/16 03:17:20;;;;;;;3.60;1.85;;;10.40;99.90;;;;;;6273374;28;20585;-76
2021/05/16 03:20:21;;;;;;;5.78;1.95;;;10.40;99.90;;;;;;6272100;28;20118;-76
2021/05/16 03:23:23;;;;;;;4.57;3.38;;;10.40;99.90;;;;;;6272926;28;20080;-76
2021/05/16 03:26:25;;;;;;;5.15;2.42;;;10.30;99.90;;;;;;6272344;28;20132;-76
2021/05/16 03:29:26;;;;;;;4.65;2.20;;;10.30;99.90;;;;;;6271763;28;20520;-76
2021/05/16 03:32:28;;;;;;;4.45;2.83;;;10.30;99.90;;;;;;6271695;28;20175;-76
2021/05/16 03:35:29;;;;;;;6.63;2.15;;;10.20;99.90;;;;;;6271612;28;20064;-76
2021/05/16 03:38:31;;;;;;;6.47;2.47;;;10.30;99.90;;;;;;6270772;28;20128;-76
2021/05/16 03:41:33;;;;;;;4.47;3.15;;;10.20;99.90;;;;;;6270899;28;20064;-76
2021/05/16 03:44:34;;;;;;;2.67;2.10;;;10.20;99.90;;;;;;6270498;28;20052;-76
2021/05/16 03:47:36;;;;;;;4.50;1.90;;;10.20;99.90;;;;;;6271874;28;20191;-76
2021/05/16 03:50:37;;;;;;;6.68;2.75;;;10.30;99.90;;;;;;6271058;28;20133;-75
2021/05/16 03:53:40;;;;;;;5.85;2.65;;;10.30;99.90;;;;;;6270646;28;20586;-76
2021/05/16 03:56:41;;;;;;;6.63;2.60;;;10.20;99.90;;;;;;6270743;28;20049;-76
2021/05/16 03:59:43;;;;;;;4.00;2.50;;;10.20;99.90;;;;;;6271146;28;20076;-76
2021/05/16 04:02:45;;;;;;;6.75;2.63;;;10.30;99.90;;;;;;6270687;28;20124;-76
2021/05/16 04:05:46;;;;;;;7.15;2.53;;;10.30;99.90;;;;;;6271024;28;20073;-77
2021/05/16 04:08:48;;;;;;;7.75;3.08;;;10.30;99.90;;;;;;6270402;28;20514;-77
2021/05/16 04:11:50;;;;;;;8.82;3.10;;;10.30;99.90;;;;;;6271540;28;20162;-76
2021/05/16 04:14:51;;;;;;;8.32;3.72;;;10.30;99.90;;;;;;6271003;28;20513;-76
2021/05/16 04:17:53;;;;;;;5.32;2.00;;;10.30;99.90;;;;;;6271822;28;20247;-75
2021/05/16 04:20:54;;;;;;;10.27;3.05;;;10.40;99.90;;;;;;6274979;28;20541;-77
2021/05/16 04:23:56;;;;;;;4.25;2.13;;;10.40;99.90;;;;;;6275380;28;20045;-75
2021/05/16 04:26:57;;;;;;;6.40;2.40;;;10.40;99.90;;;;;;6275334;28;20534;-76
2021/05/16 04:29:59;;;;;;;9.57;2.17;;;10.50;99.90;;;;;;6274797;28;20068;-76
2021/05/16 04:33:00;;;;;;;6.53;2.17;;;10.60;99.90;;;;;;6275534;28;20079;-76
2021/05/16 04:36:01;;;;;;;5.43;2.42;;;10.70;99.90;;;;;;6275006;28;20044;-76
2021/05/16 04:39:05;;;;;;;8.57;2.85;;;10.70;99.90;;;;;;6275229;28;20122;-76
2021/05/16 04:42:06;;;;;;;9.15;2.47;;;10.80;99.90;;;;;;6274449;28;20497;-77
2021/05/16 04:45:09;;;;;;;7.07;2.33;;;10.90;99.90;;;;;;6273915;28;20507;-77
2021/05/16 04:48:10;;;;;;;5.60;1.80;;;10.90;99.90;;;;;;6274460;28;20114;-76
2021/05/16 04:51:12;;;;;;;3.10;2.20;;;10.90;99.90;;;;;;6274893;28;20138;-77
2021/05/16 04:54:14;;;;;;;3.78;1.80;;;10.80;99.90;;;;;;6274135;28;20102;-76
2021/05/16 04:57:15;;;;;;;5.13;2.03;;;10.80;99.90;;;;;;6274048;28;20513;-76
2021/05/16 05:00:18;;;;;;;2.83;1.83;;;10.90;99.90;;;;;;6274126;28;20064;-76
2021/05/16 05:03:21;;;;;;;4.60;1.48;;;11.30;99.90;;;;;;6274858;28;20045;-76
2021/05/16 05:06:23;;;;;;;7.78;2.13;;;11.60;99.90;;;;;;6273907;28;20428;-76
2021/05/16 05:09:25;;;;;;;6.82;2.13;;;12.10;99.90;;;;;;6273942;28;20049;-76
2021/05/16 05:12:26;;;;;;;3.88;1.50;;;12.20;99.90;;;;;;6273909;28;20061;-77
2021/05/16 05:15:28;;;;;;;3.58;1.63;;;12.10;99.90;;;;;;6274118;28;20049;-76
2021/05/16 05:18:29;;;;;;;6.47;2.10;;;11.90;99.90;;;;;;6273757;28;20095;-76
2021/05/16 05:21:30;;;;;;;3.20;1.75;;;11.70;99.90;;;;;;6273749;28;20059;-76
2021/05/16 05:24:32;;;;;;;3.47;1.70;;;11.70;99.90;;;;;;6273757;28;20044;-76
2021/05/16 05:27:34;;;;;;;2.08;1.20;;;11.70;99.90;;;;;;6274311;28;20613;-76
2021/05/16 05:30:36;;;;;;;4.30;1.50;;;11.90;99.90;;;;;;6272393;28;20136;-76
2021/05/16 05:33:37;;;;;;;3.35;1.63;;;12.00;99.90;;;;;;6273614;28;20066;-76
2021/05/16 05:36:38;;;;;;;2.72;1.58;;;12.20;99.90;;;;;;6273686;28;20127;-77
2021/05/16 05:39:40;;;;;;;4.93;1.95;;;12.30;99.90;;;;;;6273710;28;20083;-76
2021/05/16 05:42:42;;;;;;;7.75;2.28;;;12.30;99.90;;;;;;6273549;28;20068;-77
2021/05/16 05:45:43;;;;;;;3.05;1.48;;;12.40;99.90;;;;;;6273240;28;20053;-76
2021/05/16 05:48:44;;;;;;;5.97;1.40;;;12.50;99.90;;;;;;6273117;28;20422;-76
2021/05/16 05:51:46;;;;;;;3.53;1.40;;;12.70;99.90;;;;;;6273744;28;20130;-77
2021/05/16 05:54:48;;;;;;;3.47;1.95;;;13.00;99.90;;;;;;6272848;28;20045;-76
2021/05/16 05:57:49;;;;;;;2.78;1.60;;;13.50;99.90;;;;;;6272693;28;20084;-76
2021/05/16 06:00:50;;;;;;;2.17;1.55;;;14.00;98.90;;;;;;6272453;28;20526;-77
2021/05/16 06:03:52;;;;;;;7.32;6.07;;;14.40;97.10;;;;;;6267091;28;20139;-77
2021/05/16 06:06:53;;;;;;;4.28;1.10;;;14.60;95.90;;;;;;6269675;28;20144;-76
2021/05/16 06:09:55;;;;;;;7.75;1.42;;;14.90;93.40;;;;;;6272397;28;20072;-77
2021/05/16 06:12:56;;;;;;;4.05;2.22;;;14.90;92.80;;;;;;6272656;28;20179;-77
2021/05/16 06:15:58;;;;;;;3.08;2.25;;;14.80;93.10;;;;;;6272164;28;20099;-77
2021/05/16 06:19:00;;;;;;;4.72;4.13;;;14.70;92.60;;;;;;6272988;28;20124;-76
2021/05/16 06:22:01;;;;;;;3.70;1.33;;;14.60;92.90;;;;;;6272325;28;20049;-76
2021/05/16 06:25:04;;;;;;;4.38;1.75;;;14.40;92.40;;;;;;6272753;28;20080;-76
2021/05/16 06:28:05;;;;;;;3.38;1.58;;;14.80;91.90;;;;;;6272193;28;20499;-76
2021/05/16 06:31:07;;;;;;;3.78;1.15;;;15.50;90.00;;;;;;6272801;28;20049;-76
2021/05/16 06:34:09;;;;;;;5.15;1.10;;;16.00;86.10;;;;;;6271730;28;20130;-77
2021/05/16 06:37:10;;;;;;;8.45;2.35;;;16.20;84.30;;;;;;6271894;28;20463;-77
2021/05/16 06:40:14;;;;;;;1.65;1.00;;;16.00;83.60;;;;;;6272172;28;20072;-78
2021/05/16 06:43:18;;;;;;;3.08;1.00;;;15.80;83.30;;;;;;6272485;28;20128;-76
2021/05/16 06:46:19;;;;;;;1.73;0.85;;;15.60;84.10;;;;;;6271584;28;20048;-76
2021/05/16 06:49:21;;;;;;;6.55;5.75;;;15.30;85.70;;;;;;6271184;28;20120;-78
2021/05/16 06:52:22;;;;;;;3.35;1.50;;;15.10;86.50;;;;;;6272013;28;20071;-77
2021/05/16 06:55:24;;;;;;;3.05;1.00;;;14.90;87.20;;;;;;6272476;28;20132;-76
2021/05/16 06:58:26;;;;;;;4.30;2.25;;;14.90;89.00;;;;;;6272035;28;20231;-76
2021/05/16 07:01:27;;;;;;;2.25;2.05;;;15.20;89.80;;;;;;6271359;28;20114;-77
2021/05/16 07:04:28;;;;;;;5.35;1.30;;;15.20;87.80;;;;;;6271352;28;20451;-76
2021/05/16 07:07:30;;;;;;;3.20;1.52;;;15.00;88.00;;;;;;6271792;28;20132;-76
2021/05/16 07:10:32;;;;;;;1.48;1.13;;;15.00;86.80;;;;;;6271522;28;20056;-77
2021/05/16 07:13:33;;;;;;;4.97;2.17;;;14.90;87.20;;;;;;6271761;28;20498;-76
2021/05/16 07:16:35;;;;;;;5.57;2.17;;;14.90;87.40;;;;;;6271365;28;20036;-76
2021/05/16 07:19:36;;;;;;;2.75;0.77;;;15.10;85.70;;;;;;6271557;28;20053;-76
2021/05/16 07:22:38;;;;;;;2.47;1.23;;;15.60;83.20;;;;;;6271314;28;20052;-76
2021/05/16 07:25:40;;;;;;;5.15;1.95;;;15.90;81.90;;;;;;6271262;28;20075;-77
2021/05/16 07:28:41;;;;;;;0.85;0.85;;;16.20;80.50;;;;;;6270845;28;20520;-77
2021/05/16 07:31:43;;;;;;;2.67;1.25;;;16.30;79.60;;;;;;6272114;28;20080;-76
2021/05/16 07:34:44;;;;;;;4.40;1.55;;;16.70;77.80;;;;;;6271339;28;20100;-76
2021/05/16 07:37:46;;;;;;;5.40;2.92;;;16.90;77.90;;;;;;6271233;28;20128;-76
2021/05/16 07:40:48;;;;;;;3.72;1.60;;;16.80;77.00;;;;;;6270724;28;20045;-77
2021/05/16 07:43:49;;;;;;;11.35;1.60;;;17.00;76.50;;;;;;6271911;28;20094;-77
2021/05/16 07:46:51;;;;;;;3.38;1.33;;;17.30;75.30;;;;;;6271583;28;20083;-76
2021/05/16 07:49:52;;;;;;;4.43;1.58;;;17.50;74.40;;;;;;6270850;28;20108;-77
2021/05/16 07:52:53;;;;;;;3.58;1.25;;;17.70;74.10;;;;;;6272225;28;20052;-77
2021/05/16 07:55:55;;;;;;;4.40;1.70;;;18.10;76.90;;;;;;6275709;28;20076;-77
2021/05/16 07:58:57;;;;;;;7.05;2.95;;;18.10;72.40;;;;;;6275794;28;20139;-77
2021/05/16 08:01:58;;;;;;;3.13;1.20;;;18.20;71.60;;;;;;6275258;28;20096;-77
2021/05/16 08:04:59;;;;;;;4.53;1.13;;;18.30;70.70;;;;;;6275084;28;20410;-76
2021/05/16 08:08:01;;;;;;;3.35;1.70;;;18.10;71.40;;;;;;6275538;28;20144;-77
2021/05/16 08:11:03;;;;;;;16.17;3.95;;;18.10;70.50;;;;;;6275297;28;20087;-77
2021/05/16 08:14:05;;;;;;;15.52;2.97;;;18.30;69.20;;;;;;6275403;28;20481;-75
2021/05/16 08:17:06;;;;;;;6.55;1.38;;;18.70;69.00;;;;;;6275733;28;20529;-76
2021/05/16 08:20:09;;;;;;;8.05;2.20;;;18.70;65.90;;;;;;6275126;28;20076;-75
2021/05/16 08:23:11;;;;;;;3.50;1.38;;;18.50;64.60;;;;;;6274799;28;20052;-77
2021/05/16 08:26:13;;;;;;;6.70;1.95;;;18.10;65.70;;;;;;6273815;28;20044;-77
2021/05/16 08:29:14;;;;;;;5.75;2.00;;;18.20;66.80;;;;;;6274571;28;20155;-76
2021/05/16 08:32:16;;;;;;;5.53;2.60;;;18.40;65.30;;;;;;6275698;28;20129;-77
2021/05/16 08:35:19;;;;;;;7.68;4.93;;;18.70;64.40;;;;;;6276137;28;20434;-76
2021/05/16 08:38:20;;;;;;;7.00;1.75;;;18.90;64.00;;;;;;6275320;28;20124;-76
2021/05/16 08:41:23;;;;;;;6.07;1.85;;;18.50;64.50;;;;;;6274683;28;20052;-77
2021/05/16 08:44:24;;;;;;;7.63;2.33;;;18.20;64.40;;;;;;6274934;28;20126;-77
2021/05/16 08:47:27;;;;;;;10.77;6.75;;;17.90;65.20;;;;;;6273659;28;20049;-76
2021/05/16 08:50:29;;;;;;;5.85;2.55;;;18.20;65.00;;;;;;6273767;28;20055;-78
2021/05/16 08:53:30;;;;;;;9.27;2.53;;;18.90;63.60;;;;;;6274467;28;20134;-77
2021/05/16 08:56:33;;;;;;;4.97;2.50;;;19.50;61.00;;;;;;6274161;28;20051;-77
2021/05/16 08:59:34;;;;;;;5.18;2.95;;;20.10;58.90;;;;;;6275126;28;20049;-76
2021/05/16 09:02:59;;;;;;;11.77;8.90;;;20.20;57.90;;;;;;6274392;28;20083;-77
2021/05/16 09:06:00;;;;;;;10.73;8.43;;;20.50;56.30;;;;;;6274249;28;20051;-77
2021/05/16 09:09:26;;;;;;;5.90;1.50;;;20.00;56.40;;;;;;6274622;28;20079;-77
2021/05/16 09:12:28;;;;;;;11.48;3.25;;;20.20;56.10;;;;;;6274231;28;20068;-78
2021/05/16 09:15:30;;;;;;;6.82;2.00;;;20.70;55.30;;;;;;6274623;28;20136;-76
2021/05/16 09:18:32;;;;;;;7.22;2.05;;;;;;;;;;6274006;28;20045;-76
2021/05/16 09:21:34;;;;;;;7.47;1.77;;;20.00;54.80;;;;;;6273723;28;20056;-77
2021/05/16 09:24:36;;;;;;;7.72;1.90;;;19.50;57.50;;;;;;6274731;28;20064;-78
2021/05/16 09:27:39;;;;;;;13.32;6.07;;;19.20;58.40;;;;;;6273671;28;20137;-77
2021/05/16 09:30:41;;;;;;;8.65;3.95;;;18.70;61.80;;;;;;6275187;28;20132;-76
2021/05/16 09:33:46;;;;;;;9.25;2.05;;;18.10;65.50;;;;;;6273918;28;20068;-77
2021/05/16 09:36:48;;;;;;;9.00;2.47;;;17.50;70.80;;;;;;6273380;28;20055;-77
2021/05/16 09:39:49;;;;;;;8.00;1.70;;;16.90;75.20;;;;;;6274297;28;20091;-77
2021/05/16 09:43:09;;;;;;;8.00;2.63;;;16.50;75.90;;;;;;6273312;28;20091;-77
2021/05/16 09:46:11;;;;;;;5.47;1.88;;;16.10;77.50;;;;;;6254580;28;20549;-76
2021/05/16 09:49:25;;;;;;;13.25;2.47;;;15.90;79.90;;;;;;6273966;28;20068;-76
2021/05/16 09:52:28;;;;;;;9.13;1.52;;;16.30;79.30;;;;;;6273207;28;20574;-76
2021/05/16 09:55:31;;;;;;;6.85;2.10;;;16.80;77.80;;;;;;6265162;28;20099;-76
2021/05/16 09:58:34;;;;;;;10.23;1.80;;;17.70;74.70;;;;;;6272703;28;20057;-77
2021/05/16 10:01:37;;;;;;;8.35;2.50;;;18.20;73.30;;;;;;6274251;28;20044;-76
2021/05/16 10:04:39;;;;;;;6.03;1.67;;;18.30;70.80;;;;;;6273350;28;20128;-77
2021/05/16 10:07:41;;;;;;;7.60;2.17;;;18.50;69.90;;;;;;6274947;28;20072;-77
2021/05/16 10:10:42;;;;;;;10.85;2.08;;;18.70;68.90;;;;;;6272917;28;20052;-77
2021/05/16 10:13:52;;;;;;;4.38;1.25;;;19.20;67.70;;;;;;6274190;28;20068;-76
2021/05/16 10:16:54;;;;;;;9.95;1.80;;;19.50;66.20;;;;;;6272346;28;20045;-77
2021/05/16 10:19:55;;;;;;;5.07;1.58;;;20.00;63.80;;;;;;6276576;28;20131;-77
2021/05/16 10:23:00;;;;;;;7.88;1.50;;;20.40;61.70;;;;;;6273511;28;20179;-77
2021/05/16 10:26:22;;;;;;;12.30;2.67;;;20.50;59.80;;;;;;6272593;28;20049;-77
2021/05/16 10:29:45;;;;;;;6.70;1.52;;;20.50;60.50;;;;;;6272132;28;20048;-76
2021/05/16 10:32:50;;;;;;;3.95;1.42;;;20.90;59.00;;;;;;6273478;28;20072;-76
2021/05/16 10:35:51;;;;;;;6.22;1.65;;;21.30;57.00;;;;;;6272420;28;20049;-75
2021/05/16 10:38:53;;;;;;;5.60;2.00;;;21.10;55.20;;;;;;6274000;28;20045;-76
2021/05/16 10:42:12;;;;;;;2.45;1.45;;;20.70;56.40;;;;;;6272913;28;20126;-76
2021/05/16 10:45:16;;;;;;;4.45;1.90;;;20.60;57.60;;;;;;6272759;28;20037;-76
2021/05/16 10:48:20;;;;;;;4.85;1.45;;;20.50;58.80;;;;;;6272896;28;20388;-77
2021/05/16 10:51:27;;;;;;;7.15;2.42;;;20.50;57.50;;;;;;6272892;28;20513;-77
2021/05/16 10:54:30;;;;;;;1.97;1.57;;;20.90;56.00;;;;;;6273330;28;20147;-76
2021/05/16 10:57:36;;;;;;;4.03;1.52;;;21.30;54.40;;;;;;6273160;28;20946;-77
2021/05/16 11:00:42;;;;;;;2.85;1.20;;;21.40;54.10;;;;;;6272650;28;20163;-77
2021/05/16 11:03:49;;;;;;;6.40;1.58;;;21.40;52.80;;;;;;6275726;28;20067;-76
2021/05/16 11:07:00;;;;;;;5.05;1.73;;;21.10;54.00;;;;;;6276943;28;20041;-76
2021/05/16 11:10:29;;;;;;;3.97;1.83;;;21.00;53.60;;;;;;6277181;28;20076;-76
2021/05/16 11:13:31;;;;;;;4.78;1.52;;;21.00;54.20;;;;;;6278212;28;20128;-76
2021/05/16 11:16:34;;;;;;;4.18;1.33;;;21.10;52.90;;;;;;6279123;28;20040;-76
2021/05/16 11:19:36;;;;;;;5.25;2.80;;;21.30;52.30;;;;;;6278401;28;20569;-76
2021/05/16 11:22:42;;;;;;;5.03;1.15;;;21.40;52.20;;;;;;6272599;28;20131;-76
2021/05/16 11:25:43;;;;;;;3.50;2.50;;;21.60;50.90;;;;;;6271983;28;20111;-76
2021/05/16 11:28:52;;;;;;;2.85;1.35;;;21.50;50.60;;;;;;6273251;28;20055;-76
2021/05/16 11:32:04;;;;;;;4.35;1.20;;;21.50;50.30;;;;;;6276960;28;20110;-76
2021/05/16 11:35:18;;;;;;;5.80;1.17;;;21.60;49.60;;;;;;6276957;28;20049;-75
2021/05/16 11:38:26;;;;;;;4.30;1.52;;;21.80;51.40;;;;;;6276358;28;20123;-76
2021/05/16 11:41:32;;;;;;;;;;;22.10;50.00;;;;;;6276846;28;20438;-76
2021/05/16 11:44:33;;;;;;;4.30;1.20;;;22.30;48.90;;;;;;6276690;28;19956;-76
2021/05/16 11:47:36;;;;;;;2.83;1.38;;;22.30;47.70;;;;;;6277566;28;20558;-76
2021/05/16 11:50:42;;;;;;;6.75;1.13;;;22.10;47.40;;;;;;6275798;28;20472;-76
2021/05/16 11:53:49;;;;;;;4.90;1.20;;;21.80;47.40;;;;;;6277464;28;20069;-76
2021/05/16 11:56:50;;;;;;;6.43;1.23;;;22.00;46.90;;;;;;6275918;28;20045;-76
2021/05/16 11:59:53;;;;;;;4.25;1.35;;;22.20;46.20;;;;;;6275289;28;20053;-75
2021/05/16 12:03:07;;;;;;;2.95;0.93;;;22.10;46.60;;;;;;6276163;28;20128;-76
2021/05/16 12:06:09;;;;;;;3.05;1.30;;;22.10;47.20;;;;;;6275915;28;20104;-76
2021/05/16 12:09:14;;;;;;;4.97;1.05;;;22.30;47.30;;;;;;6276115;28;20132;-76
2021/05/16 12:12:20;;;;;;;3.63;1.23;;;22.10;48.20;;;;;;6275850;28;20052;-76
2021/05/16 12:15:24;;;;;;;2.90;1.58;;;22.20;48.30;;;;;;6251710;28;20132;-77
2021/05/16 12:18:26;;;;;;;4.15;0.85;;;22.20;48.00;;;;;;6250274;28;20072;-77
2021/05/16 12:21:30;;;;;;;3.58;1.10;;;22.00;49.50;;;;;;6250390;28;20057;-75
2021/05/16 12:24:33;;;;;;;7.10;1.70;;;21.80;49.00;;;;;;6250073;28;20049;-77
2021/05/16 12:27:35;;;;;;;5.97;0.90;;;21.80;48.60;;;;;;6251504;28;20128;-77
2021/05/16 12:30:36;;;;;;;3.25;1.05;;;21.80;49.00;;;;;;6272040;28;20084;-77
2021/05/16 12:33:39;;;;;;;4.13;1.13;;;21.90;48.00;;;;;;6275490;28;20136;-77
2021/05/16 12:36:48;;;;;;;4.97;2.88;;;22.00;47.50;;;;;;6274561;28;20499;-77
2021/05/16 12:39:51;;;;;;;3.95;1.63;;;22.00;49.00;;;;;;6275243;28;20049;-77
2021/05/16 12:43:03;;;;;;;4.53;1.35;;;22.00;48.40;;;;;;6274666;28;20084;-76
2021/05/16 12:46:04;;;;;;;4.82;1.10;;;21.90;46.30;;;;;;6274387;28;20548;-78
2021/05/16 12:49:06;;;;;;;2.60;1.40;;;22.10;46.20;;;;;;6274438;28;20120;-77
2021/05/16 12:52:08;;;;;;;1.40;0.85;;;22.10;46.70;;;;;;6274569;28;20084;-76
2021/05/16 12:55:26;;;;;;;6.18;1.00;;;22.20;46.50;;;;;;6275187;28;20045;-76
2021/05/16 12:58:33;;;;;;;2.47;0.90;;;22.50;46.20;;;;;;6273910;28;20526;-76
2021/05/16 13:01:37;;;;;;;2.42;1.15;;;22.50;43.40;;;;;;6274112;28;20574;-77
2021/05/16 13:04:48;;;;;;;3.00;1.02;;;22.60;42.60;;;;;;6274229;28;20607;-76
2021/05/16 13:07:50;;;;;;;1.58;1.00;;;22.60;44.10;;;;;;6274448;28;20522;-76
2021/05/16 13:10:55;;;;;;;4.55;1.40;;;22.50;43.80;;;;;;6273519;28;20613;-76
2021/05/16 13:14:00;;;;;;;6.28;1.80;;;22.00;45.90;;;;;;6273500;28;20048;-76
2021/05/16 13:17:07;;;;;;;1.02;0.50;;;21.70;46.30;;;;;;6273616;28;20068;-76
2021/05/16 13:20:20;;;;;;;1.20;0.82;;;21.40;46.50;;;;;;6273553;28;20420;-76
2021/05/16 13:23:23;;;;;;;3.25;0.90;;;21.50;45.90;;;;;;6274177;28;20060;-76
2021/05/16 13:26:42;;;;;;;4.72;1.08;;;21.60;45.90;;;;;;6273501;28;20045;-76
2021/05/16 13:29:48;;;;;;;7.88;1.20;;;21.40;45.60;;;;;;6272739;28;20409;-76
2021/05/16 13:32:49;;;;;;;5.95;1.38;;;21.00;47.80;;;;;;6272694;28;20048;-76
2021/05/16 13:35:51;;;;;;;2.30;1.02;;;21.10;48.00;;;;;;6273961;28;20132;-76
2021/05/16 13:38:53;;;;;;;4.15;1.00;;;21.10;47.10;;;;;;6273240;28;20057;-76
2021/05/16 13:41:59;;;;;;;3.05;1.02;;;21.20;47.10;;;;;;6272951;28;20060;-77
2021/05/16 13:45:00;;;;;;;7.30;0.90;;;21.20;47.80;;;;;;6273218;28;20055;-76
2021/05/16 13:48:02;;;;;;;4.45;1.30;;;21.20;48.40;;;;;;6272987;28;20064;-76
2021/05/16 13:51:04;;;;;;;6.82;1.10;;;21.30;47.70;;;;;;6272515;28;20182;-76
2021/05/16 13:54:07;;;;;;;4.68;0.60;;;21.10;47.80;;;;;;6273476;28;20075;-76
2021/05/16 13:57:09;;;;;;;6.03;1.83;;;20.80;49.00;;;;;;6272627;28;20396;-76
2021/05/16 14:00:11;;;;;;;1.95;1.05;;;20.50;50.30;;;;;;6272228;28;20367;-76
2021/05/16 14:03:12;;;;;;;4.47;1.20;;;20.40;51.20;;;;;;6273016;28;20179;-76
2021/05/16 14:06:15;;;;;;;4.05;1.05;;;20.50;50.80;;;;;;6272536;28;20132;-76
2021/05/16 14:09:16;;;;;;;2.30;0.98;;;20.60;50.10;;;;;;6272616;28;20140;-75
2021/05/16 14:12:17;;;;;;;2.75;0.77;;;20.90;48.50;;;;;;6272691;28;20124;-76
2021/05/16 14:15:19;;;;;;;5.50;1.60;;;21.00;47.70;;;;;;6273171;28;20578;-76
2021/05/16 14:18:21;;;;;;;2.20;1.00;;;21.20;47.50;;;;;;6272395;28;20072;-77
2021/05/16 14:21:23;;;;;;;4.57;0.77;;;21.30;47.20;;;;;;6272014;28;20111;-77
2021/05/16 14:24:25;;;;;;;2.03;0.93;;;21.40;46.70;;;;;;6272260;28;20122;-77
2021/05/16 14:27:29;;;;;;;1.08;0.50;;;21.20;46.40;;;;;;6272551;28;20045;-76
2021/05/16 14:30:41;;;;;;;6.82;0.98;;;21.00;47.40;;;;;;6271710;28;20654;-76
2021/05/16 14:33:43;;;;;;;4.47;1.33;;;20.90;47.20;;;;;;6272052;28;20044;-77
2021/05/16 14:36:45;;;;;;;3.58;1.08;;;21.00;48.10;;;;;;6271504;28;20115;-75
2021/05/16 14:39:46;;;;;;;3.10;0.70;;;21.20;46.30;;;;;;6271868;28;20049;-76
2021/05/16 14:42:48;;;;;;;2.42;1.02;;;21.20;46.80;;;;;;6269415;28;20501;-75
2021/05/16 14:45:49;;;;;;;5.72;1.08;;;21.30;46.40;;;;;;6267924;28;20128;-76
2021/05/16 14:48:50;;;;;;;1.08;0.60;;;21.30;46.20;;;;;;6271439;28;20072;-75
2021/05/16 14:51:52;;;;;;;2.58;0.95;;;21.20;46.00;;;;;;6271677;28;20052;-76
2021/05/16 14:54:54;;;;;;;3.80;0.90;;;21.00;46.80;;;;;;6271918;28;20044;-75
2021/05/16 14:57:55;;;;;;;3.85;1.15;;;21.00;46.80;;;;;;6271710;28;20573;-76
2021/05/16 15:00:56;;;;;;;2.47;1.30;;;20.80;46.80;;;;;;6271092;28;20073;-76
2021/05/16 15:03:58;;;;;;;2.28;0.77;;;20.50;47.50;;;;;;6271532;28;20490;-76
2021/05/16 15:07:01;;;;;;;1.67;0.82;;;20.30;48.80;;;;;;6271903;28;20131;-76
2021/05/16 15:10:03;;;;;;;1.95;0.70;;;20.50;48.30;;;;;;6272486;28;20048;-76
2021/05/16 15:13:04;;;;;;;2.53;0.63;;;20.70;47.70;;;;;;6271552;28;20053;-76
2021/05/16 15:16:06;;;;;;;0.98;0.60;;;20.60;47.30;;;;;;6271828;28;20419;-76
2021/05/16 15:19:07;;;;;;;0.75;0.40;;;20.40;47.80;;;;;;6271789;28;20103;-76
2021/05/16 15:22:09;;;;;;;1.52;1.02;;;20.30;48.40;;;;;;6272083;28;20132;-76
2021/05/16 15:25:11;;;;;;;1.40;0.60;;;20.30;48.50;;;;;;6271458;28;20069;-76
2021/05/16 15:28:12;;;;;;;4.32;0.70;;;20.30;48.70;;;;;;6271486;28;20566;-76
2021/05/16 15:31:15;;;;;;;1.70;0.52;;;20.20;49.50;;;;;;6273343;28;20088;-75
2021/05/16 15:34:16;;;;;;;3.42;1.33;;;20.10;50.10;;;;;;6270846;28;20048;-75
2021/05/16 15:37:20;;;;;;;1.83;0.93;;;20.10;50.50;;;;;;6273099;28;20072;-75
2021/05/16 15:40:23;;;;;;;4.30;1.15;;;20.10;50.70;;;;;;6271890;28;20197;-74
2021/05/16 15:43:26;;;;;;;1.23;0.73;;;20.20;50.30;;;;;;6273961;28;20132;-76
2021/05/16 15:46:27;;;;;;;1.00;0.50;;;20.20;50.30;;;;;;6278966;28;20060;-75
2021/05/16 15:49:28;;;;;;;3.40;0.98;;;20.30;49.90;;;;;;6273820;28;20067;-77
2021/05/16 15:52:31;;;;;;;2.55;0.70;;;20.20;51.00;;;;;;6272589;28;20071;-78